createdAt,value
2022-12-13T05:23:40.668Z,38.05
2022-12-13T05:28:45.242Z,32.00
2022-12-13T05:31:22.514Z,35.38
2022-12-13T05:34:01.684Z,57.42
2022-12-13T05:36:34.004Z,34.25
2022-12-13T05:39:06.140Z,39.90
2022-12-13T05:42:01.499Z,37.35
2022-12-13T05:44:34.986Z,34.45
2022-12-13T05:47:06.998Z,37.80
2022-12-13T05:49:39.884Z,32.63
2022-12-13T05:52:20.787Z,29.83
2022-12-13T05:54:56.878Z,38.40
2022-12-13T05:57:34.169Z,34.25
2022-12-13T06:00:28.591Z,29.70
2022-12-13T06:03:02.176Z,29.85
2022-12-13T06:05:34.403Z,29.60
2022-12-13T06:08:23.885Z,27.17
2022-12-13T06:11:10.801Z,31.85
2022-12-13T06:13:44.674Z,30.63
2022-12-13T06:16:22.221Z,31.70
2022-12-13T06:19:03.776Z,45.33
2022-12-13T06:21:43.556Z,40.53
2022-12-13T06:24:19.746Z,37.58
2022-12-13T06:26:52.614Z,29.98
2022-12-13T06:32:02.742Z,27.05
2022-12-13T06:34:36.366Z,31.95
2022-12-13T06:37:13.846Z,29.92
2022-12-13T06:39:47.089Z,31.38
2022-12-13T06:42:21.996Z,30.58
2022-12-13T06:44:56.133Z,32.90
2022-12-13T06:47:31.364Z,31.85
2022-12-13T06:50:05.388Z,32.42
2022-12-13T06:52:38.045Z,30.05
2022-12-13T06:55:10.694Z,35.53
2022-12-13T06:57:44.021Z,33.67
2022-12-13T07:00:22.856Z,36.60
2022-12-13T07:02:57.009Z,34.42
2022-12-13T07:05:29.108Z,24.00
2022-12-13T07:08:01.202Z,29.73
2022-12-13T07:10:33.795Z,30.55
2022-12-13T07:13:05.786Z,32.45
2022-12-13T07:15:38.383Z,31.95
2022-12-13T07:18:10.675Z,36.42
2022-12-13T07:20:44.085Z,27.08
2022-12-13T07:23:16.319Z,30.75
2022-12-13T07:25:56.928Z,29.58
2022-12-13T07:28:29.524Z,31.55
2022-12-13T07:31:04.250Z,31.10
2022-12-13T07:33:37.329Z,31.40
2022-12-13T07:38:51.186Z,34.65
2022-12-13T07:41:24.727Z,41.33
2022-12-13T07:43:59.758Z,39.05
2022-12-13T07:46:33.888Z,31.48
2022-12-13T07:49:06.255Z,36.47
2022-12-13T07:51:38.885Z,36.72
2022-12-13T07:54:11.720Z,47.83
2022-12-13T07:56:44.031Z,41.92
2022-12-13T07:59:16.477Z,42.97
2022-12-13T08:02:01.816Z,36.58
2022-12-13T08:04:37.439Z,39.35
2022-12-13T08:07:11.336Z,40.90
2022-12-13T14:57:34.253Z,51.50
2022-12-13T15:00:29.210Z,54.53
2022-12-13T15:03:04.146Z,54.35
2022-12-13T15:05:45.692Z,50.08
2022-12-13T15:08:21.049Z,57.45
2022-12-13T15:10:56.917Z,52.17
2022-12-13T15:13:38.512Z,52.90
2022-12-13T15:16:19.794Z,50.55
2022-12-13T15:19:30.189Z,58.90
2022-12-13T15:24:51.374Z,54.53
2022-12-13T15:27:48.264Z,58.55
2022-12-13T15:30:21.440Z,61.72
2022-12-13T15:33:21.197Z,53.78
2022-12-13T15:36:08.813Z,60.38
2022-12-13T15:39:03.672Z,58.60
2022-12-13T15:41:42.576Z,69.88
2022-12-13T15:44:19.699Z,63.20
2022-12-13T15:46:53.389Z,63.20
2022-12-13T15:49:52.761Z,62.83
2022-12-13T15:52:31.822Z,63.20
2022-12-13T15:55:07.825Z,58.50
2022-12-13T15:57:54.542Z,69.88
2022-12-13T16:00:32.362Z,58.92
2022-12-13T16:03:21.544Z,62.00
2022-12-13T16:05:55.891Z,67.05
2022-12-13T16:08:35.705Z,59.40
2022-12-13T16:11:08.835Z,64.10
2022-12-13T16:13:47.228Z,65.10
2022-12-13T16:16:30.469Z,63.15
2022-12-13T16:19:17.785Z,69.95
2022-12-13T16:21:50.173Z,70.55
2022-12-13T16:24:22.120Z,62.25
2022-12-13T16:26:54.170Z,61.65
2022-12-13T16:29:26.129Z,74.80
2022-12-13T16:32:01.432Z,71.85
2022-12-13T16:34:40.451Z,77.38
2022-12-13T16:37:26.804Z,57.23
2022-12-13T16:40:02.221Z,79.13
2022-12-13T16:42:34.804Z,90.50
2022-12-13T16:48:07.221Z,105.60
2022-12-13T16:50:46.050Z,81.20
2022-12-13T16:53:19.229Z,69.47
2022-12-13T16:55:58.551Z,72.53
2022-12-13T16:58:31.854Z,68.30
2022-12-13T17:01:11.748Z,67.78
2022-12-13T17:03:44.017Z,60.33
2022-12-13T17:06:21.561Z,69.45
2022-12-13T17:08:53.587Z,62.05
2022-12-13T17:11:26.375Z,73.00
2022-12-13T17:13:59.876Z,71.63
2022-12-13T17:16:32.559Z,75.05
2022-12-13T17:19:04.715Z,67.43
2022-12-13T17:21:37.704Z,73.78
2022-12-13T17:24:09.955Z,75.68
2022-12-13T17:26:54.234Z,74.78
2022-12-13T17:29:27.338Z,83.65
2022-12-13T17:31:59.438Z,71.80
2022-12-13T17:34:31.599Z,101.43
2022-12-13T17:37:09.985Z,80.70
2022-12-13T17:39:42.496Z,79.78
2022-12-13T17:42:15.769Z,72.68
2022-12-13T17:44:47.870Z,71.47
2022-12-13T17:47:19.991Z,70.35
2022-12-13T17:49:51.974Z,72.15
2022-12-13T17:52:24.425Z,76.73
2022-12-13T17:54:56.490Z,74.57
2022-12-13T17:57:29.475Z,64.55
2022-12-13T18:00:02.884Z,74.40
2022-12-13T18:02:55.257Z,78.13
2022-12-13T18:05:27.904Z,65.97
2022-12-13T18:08:00.002Z,77.20
2022-12-13T18:10:32.221Z,72.15
2022-12-13T18:13:04.524Z,79.05
2022-12-13T18:15:37.290Z,76.70
2022-12-13T18:18:12.490Z,75.80
2022-12-13T18:23:17.150Z,65.78
2022-12-13T18:25:51.121Z,65.97
2022-12-13T18:28:23.079Z,68.85
2022-12-13T18:31:18.838Z,66.00
2022-12-13T18:33:53.378Z,58.60
2022-12-13T18:36:25.866Z,62.80
2022-12-13T18:38:58.085Z,68.13
2022-12-13T18:41:31.062Z,58.80
2022-12-13T18:44:08.158Z,54.63
2022-12-13T18:46:44.833Z,76.65
2022-12-13T18:49:18.361Z,66.40
2022-12-13T18:51:50.503Z,65.67
2022-12-13T18:54:22.715Z,60.30
2022-12-13T18:56:55.211Z,62.20
2022-12-13T19:02:01.028Z,60.72
2022-12-13T19:04:34.965Z,56.85
2022-12-13T19:07:07.976Z,56.53
2022-12-13T19:09:40.332Z,59.80
2022-12-13T19:12:13.004Z,59.38
2022-12-13T19:14:54.583Z,64.45
2022-12-13T19:17:27.473Z,65.57
2022-12-13T19:19:59.634Z,64.00
2022-12-13T19:22:31.981Z,71.35
2022-12-13T19:25:04.449Z,63.08
2022-12-13T19:27:36.867Z,60.25
2022-12-13T19:30:09.319Z,64.07
2022-12-13T19:32:42.583Z,65.93
2022-12-13T19:35:21.822Z,63.90
2022-12-13T19:37:54.252Z,63.40
2022-12-13T19:40:27.532Z,59.75
2022-12-13T19:42:59.548Z,59.75
2022-12-13T19:45:31.542Z,58.80
2022-12-13T19:48:03.865Z,54.42
2022-12-13T19:50:35.947Z,62.30
2022-12-13T19:53:08.861Z,54.10
2022-12-13T19:55:48.458Z,52.85
2022-12-13T19:58:21.297Z,48.38
2022-12-13T20:00:53.750Z,51.22
2022-12-13T20:03:26.317Z,47.88
2022-12-13T20:06:00.401Z,54.97
2022-12-13T20:08:33.178Z,48.00
2022-12-13T20:11:08.657Z,45.75
2022-12-13T20:13:41.030Z,50.38
2022-12-13T20:16:22.025Z,49.13
2022-12-13T20:18:59.618Z,49.80
2022-12-13T20:21:31.928Z,53.97
2022-12-13T20:24:04.369Z,52.43
2022-12-13T20:26:36.403Z,52.88
2022-12-13T20:29:08.961Z,44.10
2022-12-13T20:31:48.231Z,58.45
